sensor_id;sensor_type;location;lat;lon;timestamp;P1;durP1;ratioP1;P2;durP2;ratioP2
50649;SDS011;36621;60.058;30.346;2023-05-23T00:02:50;9.00;;;6.60;;
50649;SDS011;36621;60.058;30.346;2023-05-23T00:10:23;11.27;;;7.13;;
50649;SDS011;36621;60.058;30.346;2023-05-23T00:17:55;13.48;;;7.85;;
50649;SDS011;36621;60.058;30.346;2023-05-23T00:25:29;11.85;;;7.70;;
50649;SDS011;36621;60.058;30.346;2023-05-23T00:33:03;43.25;;;11.07;;
50649;SDS011;36621;60.058;30.346;2023-05-23T00:40:36;33.90;;;10.68;;
50649;SDS011;36621;60.058;30.346;2023-05-23T00:48:09;37.55;;;12.57;;
50649;SDS011;36621;60.058;30.346;2023-05-23T00:55:42;42.13;;;11.73;;
50649;SDS011;36621;60.058;30.346;2023-05-23T01:03:15;29.65;;;11.60;;
50649;SDS011;36621;60.058;30.346;2023-05-23T01:10:49;40.60;;;13.02;;
50649;SDS011;36621;60.058;30.346;2023-05-23T01:18:23;31.50;;;10.68;;
50649;SDS011;36621;60.058;30.346;2023-05-23T01:26:10;22.50;;;11.98;;
50649;SDS011;36621;60.058;30.346;2023-05-23T01:33:50;32.28;;;12.02;;
50649;SDS011;36621;60.058;30.346;2023-05-23T01:41:23;24.73;;;10.98;;
50649;SDS011;36621;60.058;30.346;2023-05-23T01:48:56;24.55;;;10.90;;
50649;SDS011;36621;60.058;30.346;2023-05-23T01:56:29;25.33;;;11.23;;
50649;SDS011;36621;60.058;30.346;2023-05-23T02:04:03;18.23;;;10.55;;
50649;SDS011;36621;60.058;30.346;2023-05-23T02:11:35;15.73;;;10.15;;
50649;SDS011;36621;60.058;30.346;2023-05-23T02:19:08;14.57;;;9.48;;
50649;SDS011;36621;60.058;30.346;2023-05-23T02:26:40;11.32;;;9.32;;
50649;SDS011;36621;60.058;30.346;2023-05-23T02:34:13;10.73;;;8.77;;
50649;SDS011;36621;60.058;30.346;2023-05-23T02:41:45;12.40;;;9.40;;
50649;SDS011;36621;60.058;30.346;2023-05-23T02:49:17;12.15;;;9.00;;
50649;SDS011;36621;60.058;30.346;2023-05-23T02:56:50;15.93;;;9.68;;
50649;SDS011;36621;60.058;30.346;2023-05-23T03:04:26;13.50;;;9.98;;
50649;SDS011;36621;60.058;30.346;2023-05-23T03:11:59;12.23;;;9.60;;
50649;SDS011;36621;60.058;30.346;2023-05-23T03:19:34;15.30;;;10.40;;
50649;SDS011;36621;60.058;30.346;2023-05-23T03:27:07;15.20;;;11.43;;
50649;SDS011;36621;60.058;30.346;2023-05-23T03:34:40;12.50;;;10.05;;
50649;SDS011;36621;60.058;30.346;2023-05-23T03:42:13;19.48;;;15.48;;
50649;SDS011;36621;60.058;30.346;2023-05-23T03:50:06;14.27;;;11.03;;
50649;SDS011;36621;60.058;30.346;2023-05-23T03:57:44;14.35;;;11.43;;
50649;SDS011;36621;60.058;30.346;2023-05-23T04:05:29;11.80;;;10.60;;
50649;SDS011;36621;60.058;30.346;2023-05-23T04:13:07;15.90;;;13.10;;
50649;SDS011;36621;60.058;30.346;2023-05-23T04:20:43;14.68;;;10.98;;
50649;SDS011;36621;60.058;30.346;2023-05-23T04:28:15;18.00;;;11.27;;
50649;SDS011;36621;60.058;30.346;2023-05-23T04:35:48;13.43;;;11.00;;
50649;SDS011;36621;60.058;30.346;2023-05-23T04:43:21;15.57;;;11.13;;
50649;SDS011;36621;60.058;30.346;2023-05-23T04:51:03;15.93;;;10.98;;
50649;SDS011;36621;60.058;30.346;2023-05-23T04:58:44;13.32;;;9.85;;
50649;SDS011;36621;60.058;30.346;2023-05-23T05:06:18;9.52;;;8.52;;
50649;SDS011;36621;60.058;30.346;2023-05-23T05:13:51;13.35;;;10.07;;
50649;SDS011;36621;60.058;30.346;2023-05-23T05:21:26;13.27;;;7.90;;
50649;SDS011;36621;60.058;30.346;2023-05-23T05:28:59;11.20;;;8.35;;
50649;SDS011;36621;60.058;30.346;2023-05-23T05:36:32;14.18;;;9.10;;
50649;SDS011;36621;60.058;30.346;2023-05-23T05:44:04;14.35;;;8.25;;
50649;SDS011;36621;60.058;30.346;2023-05-23T05:51:37;10.18;;;6.25;;
50649;SDS011;36621;60.058;30.346;2023-05-23T05:59:09;17.17;;;6.43;;
50649;SDS011;36621;60.058;30.346;2023-05-23T06:06:43;11.98;;;6.30;;
50649;SDS011;36621;60.058;30.346;2023-05-23T06:14:16;10.48;;;6.30;;
50649;SDS011;36621;60.058;30.346;2023-05-23T06:21:51;9.38;;;6.15;;
50649;SDS011;36621;60.058;30.346;2023-05-23T06:29:25;9.45;;;5.80;;
50649;SDS011;36621;60.058;30.346;2023-05-23T06:36:57;11.70;;;5.90;;
50649;SDS011;36621;60.058;30.346;2023-05-23T06:44:30;21.60;;;7.10;;
50649;SDS011;36621;60.058;30.346;2023-05-23T06:52:08;10.77;;;6.72;;
50649;SDS011;36621;60.058;30.346;2023-05-23T06:59:40;12.85;;;7.20;;
50649;SDS011;36621;60.058;30.346;2023-05-23T07:07:13;13.85;;;8.18;;
50649;SDS011;36621;60.058;30.346;2023-05-23T07:14:47;14.77;;;8.07;;
50649;SDS011;36621;60.058;30.346;2023-05-23T07:22:21;13.85;;;6.93;;
50649;SDS011;36621;60.058;30.346;2023-05-23T07:29:54;9.30;;;5.20;;
50649;SDS011;36621;60.058;30.346;2023-05-23T07:37:28;15.00;;;5.70;;
50649;SDS011;36621;60.058;30.346;2023-05-23T07:45:01;7.75;;;4.85;;
50649;SDS011;36621;60.058;30.346;2023-05-23T07:52:36;7.40;;;4.55;;
50649;SDS011;36621;60.058;30.346;2023-05-23T08:00:10;8.35;;;4.78;;
50649;SDS011;36621;60.058;30.346;2023-05-23T08:07:58;5.68;;;4.28;;
50649;SDS011;36621;60.058;30.346;2023-05-23T08:15:32;4.20;;;3.17;;
50649;SDS011;36621;60.058;30.346;2023-05-23T08:23:13;5.70;;;3.25;;
50649;SDS011;36621;60.058;30.346;2023-05-23T08:30:46;6.57;;;2.85;;
50649;SDS011;36621;60.058;30.346;2023-05-23T08:38:19;8.32;;;3.60;;
50649;SDS011;36621;60.058;30.346;2023-05-23T08:46:05;10.65;;;3.25;;
50649;SDS011;36621;60.058;30.346;2023-05-23T08:53:40;13.85;;;5.70;;
50649;SDS011;36621;60.058;30.346;2023-05-23T09:08:51;8.32;;;5.30;;
50649;SDS011;36621;60.058;30.346;2023-05-23T09:16:30;8.95;;;3.60;;
50649;SDS011;36621;60.058;30.346;2023-05-23T09:32:09;4.55;;;3.00;;
50649;SDS011;36621;60.058;30.346;2023-05-23T09:39:45;6.57;;;3.67;;
50649;SDS011;36621;60.058;30.346;2023-05-23T09:47:19;5.80;;;3.85;;
50649;SDS011;36621;60.058;30.346;2023-05-23T09:54:52;9.70;;;4.15;;
50649;SDS011;36621;60.058;30.346;2023-05-23T10:10:25;7.80;;;3.97;;
50649;SDS011;36621;60.058;30.346;2023-05-23T10:18:02;9.43;;;3.90;;
50649;SDS011;36621;60.058;30.346;2023-05-23T10:25:40;13.75;;;4.68;;
50649;SDS011;36621;60.058;30.346;2023-05-23T10:33:14;6.43;;;3.33;;
50649;SDS011;36621;60.058;30.346;2023-05-23T10:40:51;5.97;;;3.53;;
50649;SDS011;36621;60.058;30.346;2023-05-23T10:48:31;10.95;;;3.80;;
50649;SDS011;36621;60.058;30.346;2023-05-23T10:56:06;11.43;;;4.35;;
50649;SDS011;36621;60.058;30.346;2023-05-23T11:03:48;9.50;;;4.32;;
50649;SDS011;36621;60.058;30.346;2023-05-23T11:11:22;7.22;;;4.55;;
50649;SDS011;36621;60.058;30.346;2023-05-23T11:26:54;11.82;;;5.03;;
50649;SDS011;36621;60.058;30.346;2023-05-23T11:34:30;6.13;;;4.15;;
50649;SDS011;36621;60.058;30.346;2023-05-23T11:42:03;15.25;;;4.15;;
50649;SDS011;36621;60.058;30.346;2023-05-23T11:49:37;5.28;;;3.88;;
50649;SDS011;36621;60.058;30.346;2023-05-23T11:57:11;6.75;;;3.88;;
50649;SDS011;36621;60.058;30.346;2023-05-23T12:04:44;7.32;;;3.80;;
50649;SDS011;36621;60.058;30.346;2023-05-23T12:12:17;11.73;;;3.95;;
50649;SDS011;36621;60.058;30.346;2023-05-23T12:19:51;7.35;;;3.33;;
50649;SDS011;36621;60.058;30.346;2023-05-23T12:27:27;9.07;;;3.80;;
50649;SDS011;36621;60.058;30.346;2023-05-23T12:35:00;5.00;;;3.50;;
50649;SDS011;36621;60.058;30.346;2023-05-23T12:42:43;5.25;;;3.55;;
50649;SDS011;36621;60.058;30.346;2023-05-23T12:50:16;8.65;;;3.58;;
50649;SDS011;36621;60.058;30.346;2023-05-23T12:57:49;7.43;;;3.63;;
50649;SDS011;36621;60.058;30.346;2023-05-23T13:05:21;7.35;;;3.53;;
50649;SDS011;36621;60.058;30.346;2023-05-23T13:12:54;3.92;;;3.53;;
50649;SDS011;36621;60.058;30.346;2023-05-23T13:20:26;8.63;;;3.50;;
50649;SDS011;36621;60.058;30.346;2023-05-23T13:28:00;11.35;;;3.97;;
50649;SDS011;36621;60.058;30.346;2023-05-23T13:35:32;7.20;;;3.33;;
50649;SDS011;36621;60.058;30.346;2023-05-23T13:43:05;11.70;;;3.70;;
50649;SDS011;36621;60.058;30.346;2023-05-23T13:50:37;11.07;;;3.50;;
50649;SDS011;36621;60.058;30.346;2023-05-23T13:58:09;9.25;;;8.02;;
50649;SDS011;36621;60.058;30.346;2023-05-23T14:05:41;17.00;;;4.50;;
50649;SDS011;36621;60.058;30.346;2023-05-23T14:13:14;9.75;;;4.13;;
50649;SDS011;36621;60.058;30.346;2023-05-23T14:20:46;6.95;;;3.22;;
50649;SDS011;36621;60.058;30.346;2023-05-23T14:28:19;11.57;;;4.50;;
50649;SDS011;36621;60.058;30.346;2023-05-23T14:35:51;5.88;;;3.10;;
50649;SDS011;36621;60.058;30.346;2023-05-23T14:43:26;5.75;;;2.95;;
50649;SDS011;36621;60.058;30.346;2023-05-23T14:51:01;7.38;;;3.80;;
50649;SDS011;36621;60.058;30.346;2023-05-23T15:08:40;9.20;;;3.60;;
50649;SDS011;36621;60.058;30.346;2023-05-23T15:16:13;6.30;;;3.13;;
50649;SDS011;36621;60.058;30.346;2023-05-23T15:32:19;6.63;;;3.28;;
50649;SDS011;36621;60.058;30.346;2023-05-23T15:39:52;14.57;;;3.70;;
50649;SDS011;36621;60.058;30.346;2023-05-23T15:47:26;16.67;;;4.53;;
50649;SDS011;36621;60.058;30.346;2023-05-23T15:55:01;8.00;;;3.50;;
50649;SDS011;36621;60.058;30.346;2023-05-23T16:02:38;9.93;;;3.73;;
50649;SDS011;36621;60.058;30.346;2023-05-23T16:10:10;11.82;;;3.78;;
50649;SDS011;36621;60.058;30.346;2023-05-23T16:17:44;10.82;;;3.58;;
50649;SDS011;36621;60.058;30.346;2023-05-23T16:25:16;7.35;;;3.45;;
50649;SDS011;36621;60.058;30.346;2023-05-23T16:32:49;9.77;;;4.13;;
50649;SDS011;36621;60.058;30.346;2023-05-23T16:40:21;8.43;;;3.10;;
50649;SDS011;36621;60.058;30.346;2023-05-23T16:48:01;4.88;;;3.10;;
50649;SDS011;36621;60.058;30.346;2023-05-23T17:04:23;11.02;;;3.70;;
50649;SDS011;36621;60.058;30.346;2023-05-23T17:11:56;11.10;;;4.03;;
50649;SDS011;36621;60.058;30.346;2023-05-23T17:19:30;12.07;;;3.88;;
50649;SDS011;36621;60.058;30.346;2023-05-23T17:27:03;9.82;;;3.92;;
50649;SDS011;36621;60.058;30.346;2023-05-23T18:36:57;7.60;;;4.15;;
50649;SDS011;36621;60.058;30.346;2023-05-23T18:44:29;13.00;;;4.78;;
50649;SDS011;36621;60.058;30.346;2023-05-23T18:52:02;8.43;;;4.07;;
50649;SDS011;36621;60.058;30.346;2023-05-23T18:59:36;12.38;;;4.45;;
50649;SDS011;36621;60.058;30.346;2023-05-23T19:07:08;10.90;;;4.20;;
50649;SDS011;36621;60.058;30.346;2023-05-23T19:14:41;12.63;;;4.28;;
50649;SDS011;36621;60.058;30.346;2023-05-23T19:22:13;12.85;;;5.10;;
50649;SDS011;36621;60.058;30.346;2023-05-23T19:29:46;17.48;;;5.30;;
50649;SDS011;36621;60.058;30.346;2023-05-23T19:37:19;21.55;;;7.43;;
50649;SDS011;36621;60.058;30.346;2023-05-23T19:44:52;15.05;;;5.15;;
50649;SDS011;36621;60.058;30.346;2023-05-23T19:52:24;18.52;;;5.45;;
50649;SDS011;36621;60.058;30.346;2023-05-23T19:59:56;22.98;;;7.53;;
50649;SDS011;36621;60.058;30.346;2023-05-23T20:07:29;34.15;;;7.60;;
50649;SDS011;36621;60.058;30.346;2023-05-23T20:15:02;17.02;;;6.30;;
50649;SDS011;36621;60.058;30.346;2023-05-23T20:22:37;18.42;;;5.72;;
50649;SDS011;36621;60.058;30.346;2023-05-23T20:30:10;16.58;;;5.85;;
50649;SDS011;36621;60.058;30.346;2023-05-23T20:37:44;24.20;;;6.75;;
50649;SDS011;36621;60.058;30.346;2023-05-23T20:45:16;17.40;;;7.13;;
50649;SDS011;36621;60.058;30.346;2023-05-23T20:52:48;11.82;;;6.13;;
50649;SDS011;36621;60.058;30.346;2023-05-23T21:00:21;17.90;;;7.70;;
50649;SDS011;36621;60.058;30.346;2023-05-23T21:07:54;14.63;;;7.75;;
50649;SDS011;36621;60.058;30.346;2023-05-23T21:15:26;12.18;;;7.43;;
50649;SDS011;36621;60.058;30.346;2023-05-23T21:22:59;10.95;;;7.88;;
50649;SDS011;36621;60.058;30.346;2023-05-23T21:30:31;11.38;;;6.63;;
50649;SDS011;36621;60.058;30.346;2023-05-23T21:38:04;25.05;;;8.27;;
50649;SDS011;36621;60.058;30.346;2023-05-23T21:45:36;16.02;;;7.93;;
50649;SDS011;36621;60.058;30.346;2023-05-23T21:53:09;16.10;;;7.60;;
50649;SDS011;36621;60.058;30.346;2023-05-23T22:00:42;13.43;;;7.68;;
50649;SDS011;36621;60.058;30.346;2023-05-23T22:08:16;15.52;;;8.30;;
50649;SDS011;36621;60.058;30.346;2023-05-23T22:15:48;15.70;;;8.75;;
50649;SDS011;36621;60.058;30.346;2023-05-23T22:23:20;34.83;;;8.75;;
50649;SDS011;36621;60.058;30.346;2023-05-23T22:30:52;35.53;;;9.02;;
50649;SDS011;36621;60.058;30.346;2023-05-23T22:38:31;25.20;;;8.50;;
50649;SDS011;36621;60.058;30.346;2023-05-23T22:46:03;27.85;;;9.05;;
50649;SDS011;36621;60.058;30.346;2023-05-23T22:53:35;24.90;;;8.75;;
50649;SDS011;36621;60.058;30.346;2023-05-23T23:01:07;24.13;;;8.75;;
50649;SDS011;36621;60.058;30.346;2023-05-23T23:08:40;13.63;;;8.10;;
50649;SDS011;36621;60.058;30.346;2023-05-23T23:16:12;12.75;;;9.25;;
50649;SDS011;36621;60.058;30.346;2023-05-23T23:23:45;17.52;;;9.27;;
50649;SDS011;36621;60.058;30.346;2023-05-23T23:31:17;18.98;;;9.77;;
50649;SDS011;36621;60.058;30.346;2023-05-23T23:38:49;15.50;;;9.35;;
50649;SDS011;36621;60.058;30.346;2023-05-23T23:46:21;21.42;;;8.63;;
50649;SDS011;36621;60.058;30.346;2023-05-23T23:53:54;20.42;;;10.70;;
